createdAt,value
2022-09-07T00:00:22.796Z,5.70
2022-09-07T00:01:22.917Z,5.50
2022-09-07T00:02:23.314Z,5.80
2022-09-07T00:03:22.950Z,5.70
2022-09-07T00:04:22.887Z,5.70
2022-09-07T00:05:22.742Z,5.70
2022-09-07T00:06:22.741Z,5.80
2022-09-07T00:07:23.010Z,6.00
2022-09-07T00:08:22.813Z,6.10
2022-09-07T00:09:22.770Z,6.10
2022-09-07T00:10:22.894Z,5.80
2022-09-07T00:11:22.722Z,5.60
2022-09-07T00:12:22.915Z,5.90
2022-09-07T00:13:22.894Z,6.10
2022-09-07T00:14:23.381Z,5.70
2022-09-07T00:15:22.804Z,5.40
2022-09-07T00:16:22.701Z,5.50
2022-09-07T00:17:22.661Z,5.60
2022-09-07T00:18:22.678Z,5.90
2022-09-07T00:19:22.666Z,5.60
2022-09-07T00:20:22.680Z,5.90
2022-09-07T00:21:22.548Z,5.90
2022-09-07T00:22:22.533Z,5.80
2022-09-07T00:23:22.517Z,5.20
2022-09-07T00:24:22.666Z,5.50
2022-09-07T00:25:22.722Z,5.50
2022-09-07T00:26:22.532Z,5.70
2022-09-07T00:27:22.500Z,6.00
2022-09-07T00:28:22.572Z,5.90
2022-09-07T00:29:22.646Z,5.80
2022-09-07T00:30:22.576Z,5.60
2022-09-07T00:31:22.613Z,5.80
2022-09-07T00:32:22.520Z,5.50
2022-09-07T00:33:22.531Z,6.30
2022-09-07T00:34:22.554Z,5.40
2022-09-07T00:35:22.474Z,5.60
2022-09-07T00:36:22.410Z,5.90
2022-09-07T00:37:23.267Z,5.50
2022-09-07T00:38:22.374Z,6.30
2022-09-07T00:39:22.577Z,5.60
2022-09-07T00:40:22.344Z,5.80
2022-09-07T00:41:22.310Z,5.90
2022-09-07T00:42:22.311Z,5.80
2022-09-07T00:43:22.330Z,6.60
2022-09-07T00:44:22.283Z,5.30
2022-09-07T00:45:22.472Z,6.00
2022-09-07T00:46:22.380Z,5.60
2022-09-07T00:47:22.329Z,5.80
2022-09-07T00:48:22.239Z,5.60
2022-09-07T00:49:22.425Z,5.70
2022-09-07T00:50:22.407Z,5.80
2022-09-07T00:51:22.211Z,6.10
2022-09-07T00:52:22.311Z,6.00
2022-09-07T00:53:22.187Z,5.90
2022-09-07T00:54:22.193Z,6.00
2022-09-07T00:55:22.258Z,6.10
2022-09-07T00:56:22.156Z,6.60
2022-09-07T00:57:22.899Z,5.70
2022-09-07T00:58:22.253Z,6.10
2022-09-07T00:59:22.180Z,6.00
2022-09-07T01:00:22.141Z,5.80
2022-09-07T01:01:22.379Z,5.70
2022-09-07T01:02:22.130Z,6.30
2022-09-07T01:03:22.068Z,6.00
2022-09-07T01:04:22.065Z,6.20
2022-09-07T01:05:22.034Z,6.50
2022-09-07T01:06:22.040Z,6.20
2022-09-07T01:07:22.052Z,6.30
2022-09-07T01:08:22.023Z,6.30
2022-09-07T01:09:22.015Z,6.50
2022-09-07T01:10:22.007Z,6.00
2022-09-07T01:11:21.969Z,5.80
2022-09-07T01:12:21.975Z,5.90
2022-09-07T01:13:22.134Z,6.30
2022-09-07T01:14:23.232Z,5.50
2022-09-07T01:15:22.029Z,6.30
2022-09-07T01:16:21.997Z,6.70
2022-09-07T01:17:21.901Z,6.00
2022-09-07T01:18:21.884Z,6.20
2022-09-07T01:19:21.943Z,5.90
2022-09-07T01:20:21.872Z,6.00
2022-09-07T01:21:21.914Z,6.00
2022-09-07T01:22:21.868Z,6.00
2022-09-07T01:23:22.138Z,6.20
2022-09-07T01:24:21.871Z,6.40
2022-09-07T01:25:21.893Z,6.00
2022-09-07T01:26:21.823Z,6.10
2022-09-07T01:27:21.794Z,6.20
2022-09-07T01:28:21.772Z,6.20
2022-09-07T01:29:21.777Z,5.80
2022-09-07T01:30:21.777Z,6.30
2022-09-07T01:31:21.908Z,5.90
2022-09-07T01:32:21.772Z,5.90
2022-09-07T01:33:21.724Z,6.10
2022-09-07T01:34:21.718Z,5.70
2022-09-07T01:35:21.737Z,5.90
2022-09-07T01:36:21.736Z,6.30
2022-09-07T01:37:21.784Z,5.80
2022-09-07T01:38:21.666Z,6.40
2022-09-07T01:39:21.659Z,5.60
2022-09-07T01:40:21.644Z,6.00
2022-09-07T01:41:22.295Z,6.40
2022-09-07T01:42:21.660Z,5.50
2022-09-07T01:43:21.713Z,6.00
2022-09-07T01:44:22.631Z,5.80
2022-09-07T01:45:21.604Z,5.70
2022-09-07T01:46:21.626Z,6.20
2022-09-07T01:47:21.578Z,5.60
2022-09-07T01:48:21.625Z,6.10
2022-09-07T01:49:22.208Z,6.10
2022-09-07T01:50:21.528Z,5.40
2022-09-07T01:51:21.526Z,5.60
2022-09-07T01:52:21.500Z,5.90
2022-09-07T01:53:21.499Z,6.20
2022-09-07T01:54:21.492Z,5.90
2022-09-07T01:55:21.531Z,6.30
2022-09-07T01:56:21.483Z,5.80
2022-09-07T01:57:21.443Z,5.80
2022-09-07T01:58:21.433Z,6.30
2022-09-07T01:59:21.707Z,6.20
2022-09-07T02:00:21.433Z,5.80
2022-09-07T02:01:21.586Z,6.00
2022-09-07T02:02:21.419Z,6.20
2022-09-07T02:03:21.432Z,6.50
2022-09-07T02:04:21.369Z,6.60
2022-09-07T02:05:21.365Z,6.10
2022-09-07T02:06:21.357Z,5.80
2022-09-07T02:07:21.412Z,6.10
2022-09-07T02:08:21.325Z,6.00
2022-09-07T02:09:21.324Z,6.00
2022-09-07T02:10:21.300Z,6.00
2022-09-07T02:11:21.608Z,6.60
2022-09-07T02:12:21.313Z,6.20
2022-09-07T02:13:21.315Z,6.50
2022-09-07T02:14:21.257Z,6.50
2022-09-07T02:15:21.245Z,6.50
2022-09-07T02:16:21.333Z,6.00
2022-09-07T02:17:22.784Z,6.40
2022-09-07T02:18:21.224Z,6.40
2022-09-07T02:19:21.339Z,6.30
2022-09-07T02:20:21.183Z,6.30
2022-09-07T02:21:21.178Z,6.70
2022-09-07T02:22:21.160Z,6.50
2022-09-07T02:23:21.194Z,6.50
2022-09-07T02:24:21.177Z,6.40
2022-09-07T02:25:21.597Z,6.30
2022-09-07T02:26:21.252Z,6.20
2022-09-07T02:27:21.243Z,6.30
2022-09-07T02:28:21.187Z,6.90
2022-09-07T02:29:21.948Z,7.00
2022-09-07T02:30:21.329Z,7.00
2022-09-07T02:31:21.734Z,6.90
2022-09-07T02:32:21.215Z,7.40
2022-09-07T02:33:21.252Z,6.80
2022-09-07T02:34:21.265Z,6.60
2022-09-07T02:35:21.319Z,7.20
2022-09-07T02:36:21.415Z,7.50
2022-09-07T02:37:21.185Z,7.10
2022-09-07T02:38:21.330Z,7.10
2022-09-07T02:39:21.247Z,7.00
2022-09-07T02:40:21.146Z,7.10
2022-09-07T02:41:21.177Z,6.50
2022-09-07T02:42:22.102Z,7.20
2022-09-07T02:43:21.348Z,7.50
2022-09-07T02:44:21.058Z,7.50
2022-09-07T02:45:21.065Z,7.30
2022-09-07T02:46:21.172Z,6.80
2022-09-07T02:47:20.976Z,7.20
2022-09-07T02:48:21.236Z,7.00
2022-09-07T02:49:21.218Z,7.00
2022-09-07T02:50:20.991Z,6.70
2022-09-07T02:51:20.905Z,6.80
2022-09-07T02:52:21.004Z,6.90
2022-09-07T02:53:21.192Z,6.50
2022-09-07T02:54:20.954Z,7.00
2022-09-07T02:55:20.912Z,6.80
2022-09-07T02:56:21.068Z,7.10
2022-09-07T02:57:20.862Z,7.10
2022-09-07T02:58:21.000Z,7.40
2022-09-07T02:59:20.943Z,6.90
2022-09-07T03:00:20.989Z,7.70
2022-09-07T03:01:20.932Z,7.70
2022-09-07T03:02:20.925Z,7.50
2022-09-07T03:03:20.948Z,7.60
2022-09-07T03:04:20.979Z,8.50
2022-09-07T03:05:20.868Z,7.80
2022-09-07T03:06:20.850Z,8.10
2022-09-07T03:07:22.111Z,8.30
2022-09-07T03:08:20.740Z,8.80
2022-09-07T03:09:20.749Z,8.10
2022-09-07T03:10:20.671Z,7.70
2022-09-07T03:11:20.722Z,8.60
2022-09-07T03:12:20.607Z,8.80
2022-09-07T03:13:20.647Z,9.00
2022-09-07T03:14:20.668Z,8.90
2022-09-07T03:15:20.565Z,9.00
2022-09-07T03:16:20.685Z,9.10
2022-09-07T03:17:20.569Z,9.60
2022-09-07T03:18:20.548Z,9.80
2022-09-07T03:19:20.583Z,9.70
2022-09-07T03:20:20.616Z,9.30
2022-09-07T03:21:20.560Z,9.50
2022-09-07T03:22:20.494Z,9.10
2022-09-07T03:23:20.482Z,9.40
2022-09-07T03:24:20.468Z,9.50
2022-09-07T03:25:20.981Z,9.60
2022-09-07T03:26:20.499Z,9.80
2022-09-07T03:27:20.662Z,9.80
2022-09-07T03:28:20.603Z,9.80
2022-09-07T03:29:20.747Z,9.90
2022-09-07T03:30:20.901Z,10.10
2022-09-07T03:31:20.833Z,10.30
2022-09-07T03:32:20.667Z,9.50
2022-09-07T03:33:20.435Z,10.20
2022-09-07T03:34:20.819Z,9.90
2022-09-07T03:35:20.694Z,10.00
2022-09-07T03:36:20.590Z,10.30
2022-09-07T03:37:20.802Z,10.50
2022-09-07T03:38:20.718Z,10.80
2022-09-07T03:39:20.572Z,10.40
2022-09-07T03:40:20.488Z,10.30
2022-09-07T03:41:20.390Z,10.90
2022-09-07T03:42:20.501Z,10.90
2022-09-07T03:43:20.629Z,10.90
2022-09-07T03:44:20.466Z,10.10
2022-09-07T03:45:20.447Z,10.60
2022-09-07T03:46:20.403Z,11.20
2022-09-07T03:47:20.497Z,11.00
2022-09-07T03:48:20.303Z,11.00
2022-09-07T03:49:22.929Z,11.30
2022-09-07T03:50:20.606Z,10.80
2022-09-07T03:51:20.187Z,10.40
2022-09-07T03:52:20.170Z,11.30
2022-09-07T03:53:20.179Z,11.20
2022-09-07T03:54:20.161Z,11.30
2022-09-07T03:55:20.167Z,11.50
2022-09-07T03:56:20.134Z,10.80
2022-09-07T03:57:20.101Z,11.20
2022-09-07T03:58:20.110Z,12.00
2022-09-07T03:59:20.074Z,11.10
2022-09-07T04:00:20.055Z,10.80
2022-09-07T04:01:20.190Z,10.90
2022-09-07T04:02:20.083Z,10.90
2022-09-07T04:03:20.012Z,10.50
2022-09-07T04:04:20.053Z,10.30
2022-09-07T04:05:21.047Z,10.60
2022-09-07T04:06:20.003Z,10.50
2022-09-07T04:07:20.045Z,11.00
2022-09-07T04:08:19.992Z,11.30
2022-09-07T04:09:19.956Z,11.70
2022-09-07T04:10:20.204Z,11.80
2022-09-07T04:11:19.940Z,11.70
2022-09-07T04:12:19.929Z,11.50
2022-09-07T04:13:19.955Z,12.20
2022-09-07T04:14:19.901Z,12.20
2022-09-07T04:15:19.881Z,13.30
2022-09-07T04:16:21.818Z,13.40
2022-09-07T04:17:20.112Z,13.20
2022-09-07T04:18:19.860Z,14.10
2022-09-07T04:19:19.871Z,14.90
2022-09-07T04:20:25.829Z,15.20
2022-09-07T04:21:26.321Z,16.80
2022-09-07T04:22:19.818Z,16.60
2022-09-07T04:23:19.787Z,18.90
2022-09-07T04:24:19.791Z,18.10
2022-09-07T04:25:19.798Z,19.30
2022-09-07T04:26:19.767Z,19.00
2022-09-07T04:27:19.749Z,20.70
2022-09-07T04:28:19.782Z,19.40
2022-09-07T04:29:19.752Z,19.90
2022-09-07T04:30:19.820Z,21.00
2022-09-07T04:31:19.996Z,22.20
2022-09-07T04:32:19.767Z,22.10
2022-09-07T04:33:19.702Z,23.50
2022-09-07T04:34:19.693Z,24.90
2022-09-07T04:35:19.703Z,23.30
2022-09-07T04:36:19.645Z,22.70
2022-09-07T04:37:19.738Z,27.30
2022-09-07T04:38:19.626Z,26.30
2022-09-07T04:39:19.648Z,27.40
2022-09-07T04:40:19.692Z,29.90
2022-09-07T04:41:19.865Z,30.00
2022-09-07T04:42:19.846Z,28.70
2022-09-07T04:43:20.036Z,39.20
2022-09-07T04:44:19.733Z,41.40
2022-09-07T04:45:19.608Z,36.70
2022-09-07T04:46:19.887Z,38.70
2022-09-07T04:47:19.786Z,41.20
2022-09-07T04:48:19.637Z,48.50
2022-09-07T04:49:19.546Z,50.50
2022-09-07T04:50:19.523Z,47.10
2022-09-07T04:51:19.491Z,46.30
2022-09-07T04:52:21.329Z,46.00
2022-09-07T04:53:19.519Z,48.60
2022-09-07T04:54:19.439Z,46.20
2022-09-07T04:55:19.463Z,44.50
2022-09-07T04:56:19.441Z,45.00
2022-09-07T04:57:19.451Z,49.70
2022-09-07T04:58:19.491Z,45.80
2022-09-07T04:59:19.449Z,60.20
2022-09-07T05:00:19.374Z,49.10
2022-09-07T05:01:19.523Z,48.10
2022-09-07T05:02:19.455Z,47.20
2022-09-07T05:03:21.327Z,54.00
2022-09-07T05:04:19.470Z,51.70
2022-09-07T05:05:19.364Z,53.10
2022-09-07T05:06:19.304Z,54.10
2022-09-07T05:07:19.348Z,52.30
2022-09-07T05:08:19.345Z,53.70
2022-09-07T05:09:19.579Z,54.30
2022-09-07T05:10:19.277Z,54.10
2022-09-07T05:11:19.269Z,51.90
2022-09-07T05:12:19.254Z,53.30
2022-09-07T05:13:19.274Z,52.80
2022-09-07T05:14:19.236Z,55.00
2022-09-07T05:15:19.255Z,49.40
2022-09-07T05:16:19.326Z,51.10
2022-09-07T05:17:19.589Z,48.10
2022-09-07T05:18:19.520Z,49.30
2022-09-07T05:19:19.822Z,47.90
2022-09-07T05:20:20.386Z,50.00
2022-09-07T05:21:19.534Z,46.10
2022-09-07T05:22:19.478Z,47.20
2022-09-07T05:23:19.395Z,45.00
2022-09-07T05:24:19.560Z,43.90
2022-09-07T05:25:19.538Z,43.40
2022-09-07T05:26:19.391Z,44.10
2022-09-07T05:27:19.315Z,45.60
2022-09-07T05:28:19.628Z,42.80
2022-09-07T05:32:35.993Z,39.70
2022-09-07T05:34:36.828Z,45.10
2022-09-07T05:35:37.287Z,44.10
2022-09-07T05:36:37.793Z,41.10
2022-09-07T05:37:36.687Z,43.10
2022-09-07T05:38:36.711Z,39.70
2022-09-07T05:39:37.024Z,43.50
2022-09-07T05:40:40.524Z,42.60
2022-09-07T05:41:37.696Z,47.20
2022-09-07T05:42:36.819Z,43.40
2022-09-07T05:43:37.141Z,41.40
2022-09-07T05:44:45.975Z,40.30
2022-09-07T05:45:36.571Z,39.50
2022-09-07T05:46:36.675Z,37.40
2022-09-07T05:47:37.901Z,35.20
2022-09-07T05:48:36.824Z,34.10
2022-09-07T05:49:36.671Z,32.10
2022-09-07T05:50:36.846Z,32.20
2022-09-07T05:51:36.852Z,32.00
2022-09-07T05:52:36.874Z,34.20
2022-09-07T05:53:37.038Z,35.30
2022-09-07T05:54:36.655Z,33.30
2022-09-07T05:55:36.828Z,33.00
2022-09-07T05:56:36.817Z,33.40
2022-09-07T05:57:36.652Z,32.50
2022-09-07T05:58:36.988Z,32.40
2022-09-07T05:59:36.722Z,29.70
2022-09-07T06:00:36.440Z,30.90
2022-09-07T06:01:42.729Z,29.50
2022-09-07T06:02:39.627Z,29.40
2022-09-07T06:03:36.447Z,29.20
2022-09-07T06:04:36.334Z,29.90
2022-09-07T06:05:36.362Z,32.40
2022-09-07T06:06:36.273Z,35.80
2022-09-07T06:07:37.202Z,31.90
2022-09-07T06:08:36.246Z,33.60
2022-09-07T06:10:45.587Z,32.40
2022-09-07T06:11:36.217Z,34.60
2022-09-07T06:12:36.249Z,31.50
2022-09-07T06:13:36.520Z,33.80
2022-09-07T06:14:36.385Z,33.80
2022-09-07T06:15:36.403Z,34.70
2022-09-07T06:16:36.290Z,35.10
2022-09-07T06:17:36.293Z,35.70
2022-09-07T06:18:36.274Z,32.40
2022-09-07T06:19:36.240Z,32.00
2022-09-07T06:20:36.255Z,32.30
2022-09-07T06:21:36.152Z,32.40
2022-09-07T06:22:36.159Z,32.90
2022-09-07T06:23:36.165Z,32.60
2022-09-07T06:24:36.140Z,32.80
2022-09-07T06:25:36.064Z,31.40
2022-09-07T06:26:36.288Z,30.80
2022-09-07T06:27:36.315Z,28.70
2022-09-07T06:28:36.275Z,30.00
2022-09-07T06:29:36.046Z,30.10
2022-09-07T06:30:36.120Z,28.60
2022-09-07T06:32:45.137Z,27.30
2022-09-07T06:33:36.166Z,29.30
2022-09-07T06:34:36.363Z,30.20
2022-09-07T06:35:36.006Z,31.90
2022-09-07T06:36:36.058Z,32.60
2022-09-07T06:37:36.177Z,34.80
2022-09-07T06:38:36.120Z,35.40
2022-09-07T06:39:36.084Z,35.90
2022-09-07T06:40:36.058Z,37.00
2022-09-07T06:42:35.938Z,37.00
2022-09-07T06:43:36.011Z,38.20
2022-09-07T06:44:36.011Z,36.70
2022-09-07T06:45:36.140Z,37.30
2022-09-07T06:47:35.835Z,39.50
2022-09-07T06:48:35.805Z,40.50
2022-09-07T06:49:35.891Z,39.00
2022-09-07T06:50:36.016Z,40.60
2022-09-07T06:51:36.195Z,40.50
2022-09-07T06:53:36.807Z,39.50
2022-09-07T06:55:35.838Z,40.40
2022-09-07T06:56:36.036Z,41.60
2022-09-07T06:57:36.001Z,42.00
2022-09-07T06:58:38.072Z,39.60
2022-09-07T06:59:35.743Z,38.30
2022-09-07T07:00:35.815Z,37.50
2022-09-07T07:01:35.970Z,36.10
2022-09-07T07:02:35.698Z,36.10
2022-09-07T07:03:35.826Z,37.50
2022-09-07T07:04:40.562Z,36.70
2022-09-07T07:05:35.672Z,34.10
2022-09-07T07:06:35.623Z,31.70
2022-09-07T07:07:35.615Z,30.90
2022-09-07T07:08:35.579Z,30.00
2022-09-07T07:09:36.599Z,29.50
2022-09-07T07:10:35.791Z,28.50
2022-09-07T07:11:35.616Z,28.70
2022-09-07T07:13:12.745Z,28.60
2022-09-07T07:14:13.830Z,27.90
2022-09-07T07:15:13.736Z,28.50
2022-09-07T07:16:13.804Z,26.90
2022-09-07T07:17:13.927Z,27.40
2022-09-07T07:18:21.252Z,25.50
2022-09-07T07:19:13.838Z,24.80
2022-09-07T07:20:13.669Z,24.60
2022-09-07T07:21:13.694Z,24.90
2022-09-07T07:22:42.650Z,23.60
2022-09-07T07:23:13.620Z,23.30
2022-09-07T07:24:13.621Z,22.80
2022-09-07T07:25:13.580Z,23.20
2022-09-07T07:26:13.671Z,24.40
2022-09-07T07:27:13.587Z,23.10
2022-09-07T07:29:18.477Z,21.90
2022-09-07T07:30:13.644Z,22.00
2022-09-07T07:31:13.687Z,20.80
2022-09-07T07:32:13.588Z,20.90
2022-09-07T07:33:14.444Z,21.50
2022-09-07T07:34:13.605Z,20.90
2022-09-07T07:35:13.498Z,22.70
2022-09-07T07:36:13.459Z,21.10
2022-09-07T07:37:13.459Z,20.60
2022-09-07T07:42:13.373Z,21.50
2022-09-07T07:43:13.372Z,21.70
2022-09-07T07:44:13.429Z,21.60
2022-09-07T07:46:13.509Z,19.70
2022-09-07T07:47:13.348Z,18.80
2022-09-07T07:48:13.902Z,19.50
2022-09-07T07:49:13.322Z,18.50
2022-09-07T07:50:31.225Z,20.10
2022-09-07T07:51:13.346Z,19.20
2022-09-07T07:54:13.242Z,18.80
2022-09-07T07:55:43.628Z,18.30
2022-09-07T07:56:13.301Z,18.10
2022-09-07T07:57:13.427Z,18.30
2022-09-07T07:58:13.242Z,18.20
2022-09-07T07:59:15.820Z,18.60
2022-09-07T08:00:13.152Z,18.90
2022-09-07T08:01:13.327Z,18.90
2022-09-07T08:02:13.399Z,19.30
2022-09-07T08:03:13.156Z,19.00
2022-09-07T08:04:13.150Z,20.00
2022-09-07T08:05:13.120Z,19.80
2022-09-07T08:06:13.272Z,19.50
2022-09-07T08:07:13.290Z,18.80
2022-09-07T08:08:13.149Z,19.80
2022-09-07T08:09:13.268Z,20.70
2022-09-07T08:10:13.250Z,21.10
2022-09-07T08:11:13.035Z,21.80
2022-09-07T08:12:13.035Z,19.60
2022-09-07T08:13:13.059Z,19.70
2022-09-07T08:14:13.048Z,19.00
2022-09-07T08:15:13.316Z,19.40
2022-09-07T08:16:13.111Z,18.90
2022-09-07T08:17:13.826Z,18.90
2022-09-07T08:18:13.958Z,19.60
2022-09-07T08:19:12.949Z,18.70
2022-09-07T08:20:13.098Z,19.40
2022-09-07T08:21:13.051Z,19.20
2022-09-07T08:22:13.043Z,18.80
2022-09-07T08:23:12.970Z,17.90
2022-09-07T08:24:12.924Z,21.40
2022-09-07T08:25:13.007Z,21.50
2022-09-07T08:26:12.935Z,21.60
2022-09-07T08:27:12.865Z,20.20
2022-09-07T08:28:12.921Z,21.40
2022-09-07T08:29:13.405Z,19.90
2022-09-07T08:30:13.041Z,20.00
2022-09-07T08:31:13.005Z,20.60
2022-09-07T08:32:12.797Z,19.70
2022-09-07T08:33:12.988Z,19.20
2022-09-07T08:34:13.818Z,19.70
2022-09-07T08:35:13.432Z,18.80
2022-09-07T08:36:12.780Z,20.50
2022-09-07T08:37:13.046Z,19.40
2022-09-07T08:38:12.731Z,18.50
2022-09-07T08:39:12.747Z,19.20
2022-09-07T08:40:12.909Z,19.20
2022-09-07T08:41:12.825Z,20.10
2022-09-07T08:42:12.762Z,19.30
2022-09-07T08:43:12.883Z,18.30
2022-09-07T08:44:12.713Z,18.60
2022-09-07T08:45:12.676Z,18.60
2022-09-07T08:46:12.903Z,18.70
2022-09-07T08:47:12.668Z,18.70
2022-09-07T08:48:12.619Z,18.00
2022-09-07T08:49:12.694Z,18.60
2022-09-07T08:50:12.627Z,18.70
2022-09-07T08:51:12.681Z,18.80
2022-09-07T08:52:12.630Z,17.70
2022-09-07T08:53:12.648Z,18.00
2022-09-07T08:54:12.754Z,17.10
2022-09-07T08:55:13.126Z,19.20
2022-09-07T08:56:13.188Z,18.50
2022-09-07T08:57:28.035Z,18.10
2022-09-07T08:58:32.298Z,17.90
2022-09-07T08:59:13.064Z,17.30
2022-09-07T09:00:12.774Z,16.40
2022-09-07T09:06:10.830Z,17.40
2022-09-07T09:06:17.184Z,16.80
2022-09-07T09:06:22.471Z,16.30
2022-09-07T09:07:22.432Z,15.40
2022-09-07T09:08:22.360Z,14.70
2022-09-07T09:09:22.415Z,14.40
2022-09-07T09:10:22.410Z,13.60
2022-09-07T09:11:23.891Z,13.80
2022-09-07T09:12:22.748Z,14.20
2022-09-07T09:13:22.380Z,14.00
2022-09-07T09:14:22.404Z,15.50
2022-09-07T09:15:22.464Z,15.10
2022-09-07T09:16:22.434Z,15.00
2022-09-07T09:17:22.525Z,14.50
2022-09-07T09:18:24.415Z,14.00
2022-09-07T09:19:22.903Z,14.00
2022-09-07T09:20:23.923Z,14.00
2022-09-07T09:21:22.409Z,13.80
2022-09-07T09:22:22.366Z,14.00
2022-09-07T09:23:22.602Z,12.80
2022-09-07T09:24:23.464Z,12.70
2022-09-07T09:25:25.750Z,13.20
2022-09-07T09:26:22.349Z,13.20
2022-09-07T09:27:22.603Z,12.80
2022-09-07T09:28:22.574Z,13.20
2022-09-07T09:29:22.608Z,13.40
2022-09-07T09:30:22.266Z,13.90
2022-09-07T09:31:22.635Z,14.40
2022-09-07T09:32:22.264Z,13.70
2022-09-07T09:33:22.450Z,13.30
2022-09-07T09:34:23.997Z,14.80
2022-09-07T09:35:22.285Z,13.20
2022-09-07T09:36:22.402Z,13.00
2022-09-07T09:37:22.347Z,13.30
2022-09-07T09:38:22.243Z,12.80
2022-09-07T09:39:22.223Z,12.60
2022-09-07T09:40:22.230Z,13.00
2022-09-07T09:41:22.184Z,12.50
2022-09-07T09:42:21.970Z,13.20
2022-09-07T09:43:22.068Z,12.90
2022-09-07T09:44:22.100Z,12.60
2022-09-07T09:45:22.022Z,12.60
2022-09-07T09:46:22.027Z,12.50
2022-09-07T09:47:37.389Z,12.40
2022-09-07T09:48:21.956Z,11.60
2022-09-07T09:49:21.871Z,11.80
2022-09-07T09:52:31.750Z,11.70
2022-09-07T09:53:21.935Z,12.10
2022-09-07T09:54:21.863Z,11.60
2022-09-07T09:55:34.575Z,11.50
2022-09-07T09:56:21.845Z,11.40
2022-09-07T09:57:21.823Z,12.00
2022-09-07T10:00:29.213Z,11.10
2022-09-07T10:01:23.099Z,11.20
2022-09-07T10:04:24.650Z,12.00
2022-09-07T10:05:21.969Z,12.30
2022-09-07T10:06:21.927Z,12.00
2022-09-07T10:07:21.755Z,12.30
2022-09-07T10:08:22.734Z,12.70
2022-09-07T10:09:21.802Z,12.00
2022-09-07T10:10:21.730Z,13.10
2022-09-07T10:11:21.898Z,12.30
2022-09-07T10:12:21.777Z,13.00
2022-09-07T10:13:21.650Z,12.80
2022-09-07T10:14:22.421Z,11.80
2022-09-07T10:15:21.642Z,12.40
2022-09-07T10:16:21.714Z,11.80
2022-09-07T10:17:21.632Z,11.60
2022-09-07T10:18:21.677Z,12.10
2022-09-07T10:19:21.641Z,11.90
2022-09-07T10:20:21.652Z,11.50
2022-09-07T10:21:21.673Z,11.40
2022-09-07T10:22:21.540Z,11.30
2022-09-07T10:23:21.639Z,11.10
2022-09-07T10:24:21.474Z,11.00
2022-09-07T10:25:21.463Z,10.80
2022-09-07T10:26:21.526Z,10.80
2022-09-07T10:27:21.481Z,10.40
2022-09-07T10:28:21.670Z,10.70
2022-09-07T10:29:21.493Z,11.40
2022-09-07T10:30:21.408Z,10.90
2022-09-07T10:31:21.439Z,10.70
2022-09-07T10:32:22.397Z,11.10
2022-09-07T10:33:21.430Z,11.60
2022-09-07T10:34:28.696Z,11.00
2022-09-07T10:35:21.500Z,11.10
2022-09-07T10:36:21.363Z,11.60
2022-09-07T10:37:21.408Z,11.40
2022-09-07T10:38:21.380Z,11.10
2022-09-07T10:39:21.329Z,11.40
2022-09-07T10:40:21.692Z,10.80
2022-09-07T10:41:21.543Z,11.90
2022-09-07T10:42:21.414Z,11.10
2022-09-07T10:43:21.802Z,11.50
2022-09-07T10:44:21.383Z,11.90
2022-09-07T10:45:21.320Z,11.20
2022-09-07T10:47:21.618Z,12.10
2022-09-07T10:48:21.264Z,11.20
2022-09-07T10:49:21.386Z,11.50
2022-09-07T10:50:23.018Z,12.00
2022-09-07T10:51:21.381Z,11.50
2022-09-07T10:52:21.581Z,11.60
2022-09-07T10:53:39.451Z,11.80
2022-09-07T10:54:37.054Z,11.50
2022-09-07T10:55:21.249Z,11.30
2022-09-07T10:56:21.331Z,11.60
2022-09-07T10:57:21.382Z,10.70
2022-09-07T10:59:01.031Z,10.00
2022-09-07T10:59:21.342Z,9.90
2022-09-07T11:00:22.274Z,9.20
2022-09-07T11:01:21.150Z,8.90
2022-09-07T11:02:21.170Z,9.30
2022-09-07T11:03:25.597Z,9.60
2022-09-07T11:04:21.123Z,9.40
2022-09-07T11:05:21.154Z,9.90
2022-09-07T11:06:21.413Z,10.30
2022-09-07T11:07:23.328Z,10.60
2022-09-07T11:08:21.057Z,10.30
2022-09-07T11:09:22.933Z,10.10
2022-09-07T11:10:20.978Z,10.50
2022-09-07T11:12:00.727Z,11.30
2022-09-07T11:12:23.841Z,10.60
2022-09-07T11:13:21.069Z,10.90
2022-09-07T11:14:20.977Z,11.40
2022-09-07T11:15:20.954Z,11.20
2022-09-07T11:17:21.169Z,11.60
2022-09-07T11:18:20.908Z,11.70
2022-09-07T11:19:37.630Z,11.60
2022-09-07T11:20:20.906Z,11.70
2022-09-07T11:22:20.995Z,11.50
2022-09-07T11:23:21.212Z,11.20
2022-09-07T11:24:20.880Z,10.60
2022-09-07T11:25:36.117Z,10.00
2022-09-07T11:26:21.093Z,10.00
2022-09-07T11:27:20.769Z,9.90
2022-09-07T11:28:20.766Z,9.40
2022-09-07T11:29:36.214Z,9.70
2022-09-07T11:30:20.798Z,10.10
2022-09-07T11:31:20.782Z,9.50
2022-09-07T11:32:20.726Z,9.80
2022-09-07T11:33:20.704Z,10.20
2022-09-07T11:34:24.450Z,10.50
2022-09-07T11:35:20.860Z,10.60
2022-09-07T11:36:20.662Z,10.00
2022-09-07T11:37:20.667Z,11.30
2022-09-07T11:38:20.663Z,11.20
2022-09-07T11:39:20.625Z,12.00
2022-09-07T11:40:20.661Z,11.40
2022-09-07T11:41:20.660Z,12.30
2022-09-07T11:43:20.690Z,12.30
2022-09-07T11:44:20.608Z,12.30
2022-09-07T11:45:20.559Z,10.90
2022-09-07T11:46:20.678Z,11.20
2022-09-07T11:47:20.611Z,11.10
2022-09-07T11:48:20.544Z,11.30
2022-09-07T11:49:20.526Z,11.50
2022-09-07T11:50:20.531Z,11.70
2022-09-07T11:51:20.513Z,10.80
2022-09-07T11:52:20.499Z,11.60
2022-09-07T11:53:20.591Z,12.00
2022-09-07T11:54:20.509Z,11.90
2022-09-07T11:55:20.514Z,12.10
2022-09-07T11:56:20.457Z,12.20
2022-09-07T11:57:20.442Z,12.10
2022-09-07T11:58:21.467Z,12.40
2022-09-07T11:59:20.559Z,13.00
2022-09-07T12:00:20.559Z,12.90
2022-09-07T12:01:20.461Z,13.20
2022-09-07T12:02:28.599Z,13.10
2022-09-07T12:03:22.797Z,12.80
2022-09-07T12:04:20.442Z,12.50
2022-09-07T12:05:20.404Z,12.70
2022-09-07T12:06:20.348Z,12.50
2022-09-07T12:07:20.325Z,12.60
2022-09-07T12:08:20.352Z,13.00
2022-09-07T12:09:20.334Z,13.10
2022-09-07T12:10:20.625Z,12.80
2022-09-07T12:11:23.383Z,12.80
2022-09-07T12:12:21.269Z,12.60
2022-09-07T12:13:20.617Z,12.30
2022-09-07T12:14:20.379Z,13.30
2022-09-07T12:15:20.309Z,13.30
2022-09-07T12:16:20.442Z,13.30
2022-09-07T12:17:20.492Z,12.50
2022-09-07T12:18:20.275Z,13.20
2022-09-07T12:19:20.392Z,12.70
2022-09-07T12:20:20.252Z,12.70
2022-09-07T12:21:20.954Z,13.00
2022-09-07T12:22:20.339Z,12.60
2022-09-07T12:23:20.444Z,12.70
2022-09-07T12:24:20.797Z,12.20
2022-09-07T12:25:20.140Z,12.10
2022-09-07T12:26:20.140Z,12.00
2022-09-07T12:27:20.463Z,12.10
2022-09-07T12:28:22.154Z,12.20
2022-09-07T12:29:26.571Z,11.60
2022-09-07T12:30:20.134Z,12.30
2022-09-07T12:31:20.310Z,12.00
2022-09-07T12:33:20.182Z,11.50
2022-09-07T12:34:20.046Z,12.40
2022-09-07T12:35:20.885Z,12.00
2022-09-07T12:36:20.322Z,12.60
2022-09-07T12:37:20.031Z,12.40
2022-09-07T12:38:20.076Z,12.60
2022-09-07T12:39:20.097Z,12.10
2022-09-07T12:40:20.163Z,12.80
2022-09-07T12:41:20.093Z,12.30
2022-09-07T12:42:37.455Z,13.20
2022-09-07T12:43:19.987Z,12.70
2022-09-07T12:44:19.984Z,13.30
2022-09-07T12:45:19.898Z,13.90
2022-09-07T12:46:20.046Z,14.50
2022-09-07T12:47:20.193Z,14.20
2022-09-07T12:48:19.976Z,14.20
2022-09-07T12:49:19.976Z,13.20
2022-09-07T12:50:19.983Z,13.90
2022-09-07T12:51:59.693Z,14.00
2022-09-07T12:52:20.867Z,13.20
2022-09-07T12:53:20.284Z,13.00
2022-09-07T12:54:19.865Z,14.40
2022-09-07T12:55:28.990Z,13.60
2022-09-07T12:56:19.859Z,14.10
2022-09-07T12:57:35.184Z,13.80
2022-09-07T12:58:19.796Z,14.00
2022-09-07T12:59:20.406Z,14.10
2022-09-07T13:00:19.782Z,14.00
2022-09-07T13:01:19.869Z,14.30
2022-09-07T13:02:19.892Z,13.60
2022-09-07T13:04:19.767Z,14.30
2022-09-07T13:05:19.756Z,14.50
2022-09-07T13:06:19.919Z,14.30
2022-09-07T13:07:19.691Z,14.20
2022-09-07T13:08:19.667Z,13.20
2022-09-07T13:09:19.641Z,13.50
2022-09-07T13:10:19.756Z,13.50
2022-09-07T13:11:19.770Z,13.00
2022-09-07T13:14:01.882Z,13.10
2022-09-07T13:14:19.835Z,12.20
2022-09-07T13:15:23.998Z,12.50
2022-09-07T13:16:19.885Z,12.50
2022-09-07T13:17:19.669Z,12.00
2022-09-07T13:18:19.705Z,11.20
2022-09-07T13:19:19.631Z,11.10
2022-09-07T13:20:19.526Z,11.80
2022-09-07T13:21:19.600Z,10.70
2022-09-07T13:22:19.747Z,10.00
2022-09-07T13:23:19.851Z,9.90
2022-09-07T13:25:19.754Z,9.30
2022-09-07T13:26:19.595Z,10.30
2022-09-07T13:27:19.797Z,10.20
2022-09-07T13:28:20.609Z,10.10
2022-09-07T13:29:19.818Z,9.90
2022-09-07T13:30:19.501Z,10.40
2022-09-07T13:31:21.833Z,10.10
2022-09-07T13:32:19.949Z,9.90
2022-09-07T13:33:19.703Z,9.80
2022-09-07T13:34:19.526Z,9.50
2022-09-07T13:35:19.869Z,11.10
2022-09-07T13:36:19.455Z,14.10